createdAt,value
2023-05-18T00:00:11.593Z,13.70
2023-05-18T00:02:39.673Z,13.70
2023-05-18T00:05:10.774Z,13.70
2023-05-18T00:07:39.886Z,13.70
2023-05-18T00:10:08.374Z,13.70
2023-05-18T00:12:36.476Z,13.70
2023-05-18T00:15:04.652Z,13.70
2023-05-18T00:17:33.570Z,13.60
2023-05-18T00:20:01.916Z,13.60
2023-05-18T00:22:30.518Z,13.60
2023-05-18T00:24:58.584Z,13.60
2023-05-18T00:27:26.541Z,13.60
2023-05-18T00:29:54.770Z,13.60
2023-05-18T00:32:22.868Z,13.60
2023-05-18T00:34:52.963Z,13.60
2023-05-18T00:37:20.948Z,13.60
2023-05-18T00:39:49.105Z,13.60
2023-05-18T00:42:17.166Z,13.60
2023-05-18T00:44:45.515Z,13.60
2023-05-18T00:47:13.656Z,13.60
2023-05-18T00:49:42.106Z,13.60
2023-05-18T00:52:10.112Z,13.60
2023-05-18T00:54:38.160Z,13.60
2023-05-18T00:57:06.877Z,13.60
2023-05-18T00:59:35.262Z,13.50
2023-05-18T01:02:03.632Z,13.50
2023-05-18T01:04:32.327Z,13.50
2023-05-18T01:07:07.021Z,13.50
2023-05-18T01:09:35.455Z,13.50
2023-05-18T01:12:06.863Z,13.50
2023-05-18T01:14:37.826Z,13.50
2023-05-18T01:17:18.846Z,13.50
2023-05-18T01:19:53.127Z,13.50
2023-05-18T01:22:22.731Z,13.50
2023-05-18T01:24:57.894Z,13.50
2023-05-18T01:27:26.305Z,13.50
2023-05-18T01:29:56.731Z,13.40
2023-05-18T01:32:24.880Z,13.40
2023-05-18T01:34:53.086Z,13.40
2023-05-18T01:37:21.301Z,13.40
2023-05-18T01:39:50.925Z,13.40
2023-05-18T01:42:21.293Z,13.40
2023-05-18T01:44:52.252Z,13.40
2023-05-18T01:47:20.262Z,13.50
2023-05-18T01:50:05.696Z,13.40
2023-05-18T01:52:38.099Z,13.50
2023-05-18T01:55:07.803Z,13.40
2023-05-18T01:57:36.979Z,13.40
2023-05-18T02:00:08.457Z,13.40
2023-05-18T02:02:46.059Z,13.40
2023-05-18T02:05:17.314Z,13.40
2023-05-18T02:07:47.815Z,13.40
2023-05-18T02:10:16.611Z,13.40
2023-05-18T02:12:45.410Z,13.40
2023-05-18T02:15:13.672Z,13.40
2023-05-18T02:17:42.038Z,13.30
2023-05-18T02:20:12.732Z,13.30
2023-05-18T02:22:41.945Z,13.30
2023-05-18T02:25:10.193Z,13.30
2023-05-18T02:27:38.312Z,13.30
2023-05-18T02:30:08.831Z,13.30
2023-05-18T02:32:39.943Z,13.30
2023-05-18T02:35:08.932Z,13.30
2023-05-18T02:37:40.396Z,13.30
2023-05-18T02:40:13.245Z,13.30
2023-05-18T02:42:42.784Z,13.30
2023-05-18T02:45:11.976Z,13.20
2023-05-18T02:47:44.424Z,13.20
2023-05-18T02:50:12.786Z,13.30
2023-05-18T02:52:42.207Z,13.30
2023-05-18T02:55:11.318Z,13.30
2023-05-18T02:57:57.984Z,13.30
2023-05-18T03:00:43.151Z,13.20
2023-05-18T03:03:11.423Z,13.20
2023-05-18T03:05:39.611Z,13.20
2023-05-18T03:08:10.757Z,13.20
2023-05-18T03:10:38.791Z,13.20
2023-05-18T03:13:07.097Z,13.20
2023-05-18T03:15:35.788Z,13.20
2023-05-18T03:18:04.276Z,13.20
2023-05-18T03:20:32.360Z,13.20
2023-05-18T03:23:00.569Z,13.20
2023-05-18T03:25:29.104Z,13.20
2023-05-18T03:27:57.350Z,13.30
2023-05-18T03:30:26.089Z,13.30
2023-05-18T03:32:54.273Z,13.30
2023-05-18T03:35:22.294Z,13.20
2023-05-18T03:37:50.319Z,13.20
2023-05-18T03:40:19.922Z,13.20
2023-05-18T03:42:49.931Z,13.30
2023-05-18T03:45:18.458Z,13.20
2023-05-18T03:47:46.816Z,13.20
2023-05-18T03:50:15.255Z,13.20
2023-05-18T03:52:45.004Z,13.20
2023-05-18T03:55:13.618Z,13.20
2023-05-18T03:57:41.723Z,13.20
2023-05-18T04:00:12.282Z,13.20
2023-05-18T04:02:47.169Z,13.20
2023-05-18T04:05:19.917Z,13.20
2023-05-18T04:07:48.666Z,13.20
2023-05-18T04:10:17.889Z,13.20
2023-05-18T04:12:45.938Z,13.20
2023-05-18T04:15:15.001Z,13.20
2023-05-18T04:17:46.197Z,13.20
2023-05-18T04:20:15.054Z,13.20
2023-05-18T04:22:48.778Z,13.20
2023-05-18T04:25:19.240Z,13.20
2023-05-18T04:27:51.624Z,13.10
2023-05-18T04:30:23.035Z,13.10
2023-05-18T04:32:52.182Z,13.20
2023-05-18T04:35:20.527Z,13.10
2023-05-18T04:37:48.604Z,13.20
2023-05-18T04:40:19.053Z,13.10
2023-05-18T04:42:49.367Z,13.10
2023-05-18T04:45:30.704Z,13.20
2023-05-18T04:47:59.371Z,13.20
2023-05-18T04:50:28.482Z,13.20
2023-05-18T04:52:58.466Z,13.20
2023-05-18T04:55:29.277Z,13.20
2023-05-18T04:58:10.779Z,13.20
2023-05-18T05:00:38.993Z,13.20
2023-05-18T05:03:07.204Z,13.20
2023-05-18T05:05:35.965Z,13.20
2023-05-18T05:08:05.305Z,13.30
2023-05-18T05:10:33.642Z,13.30
2023-05-18T05:13:01.782Z,13.30
2023-05-18T05:15:30.215Z,13.30
2023-05-18T05:17:59.329Z,13.30
2023-05-18T05:20:27.409Z,13.30
2023-05-18T05:22:55.677Z,13.30
2023-05-18T05:25:26.533Z,13.30
2023-05-18T05:27:54.595Z,13.30
2023-05-18T05:30:23.043Z,13.30
2023-05-18T05:32:51.247Z,13.30
2023-05-18T05:35:19.311Z,13.30
2023-05-18T05:37:48.506Z,13.30
2023-05-18T05:40:17.518Z,13.30
2023-05-18T05:42:47.375Z,13.30
2023-05-18T05:45:15.459Z,13.40
2023-05-18T05:47:53.202Z,13.40
2023-05-18T05:50:23.502Z,13.40
2023-05-18T05:52:53.925Z,13.50
2023-05-18T05:55:23.643Z,13.50
2023-05-18T05:57:52.895Z,13.50
2023-05-18T06:00:21.404Z,13.50
2023-05-18T06:02:49.380Z,13.50
2023-05-18T06:05:25.057Z,13.50
2023-05-18T06:07:55.873Z,13.60
2023-05-18T06:10:24.066Z,13.60
2023-05-18T06:12:52.324Z,13.60
2023-05-18T06:15:22.875Z,13.60
2023-05-18T06:17:51.677Z,13.80
2023-05-18T06:20:19.993Z,13.80
2023-05-18T06:22:48.242Z,13.90
2023-05-18T06:25:42.941Z,14.00
2023-05-18T06:28:33.922Z,14.00
2023-05-18T06:31:30.256Z,13.90
2023-05-18T06:34:34.247Z,14.00
2023-05-18T06:37:02.508Z,14.00
2023-05-18T06:39:30.979Z,14.10
2023-05-18T06:41:58.946Z,14.40
2023-05-18T06:44:33.898Z,14.60
2023-05-18T06:47:19.626Z,14.80
2023-05-18T06:49:48.419Z,15.00
2023-05-18T06:52:16.936Z,15.20
2023-05-18T06:54:46.462Z,15.50
2023-05-18T06:57:15.367Z,15.80
2023-05-18T06:59:43.542Z,16.10
2023-05-18T07:02:11.697Z,16.30
2023-05-18T07:04:42.483Z,16.50
2023-05-18T07:07:10.458Z,16.60
2023-05-18T07:09:38.757Z,16.80
2023-05-18T07:12:06.929Z,17.00
2023-05-18T07:14:34.915Z,17.30
2023-05-18T07:17:03.069Z,17.50
2023-05-18T07:19:31.288Z,17.70
2023-05-18T07:21:59.919Z,17.90
2023-05-18T07:24:28.017Z,18.10
2023-05-18T07:26:56.787Z,18.20
2023-05-18T07:29:25.924Z,18.40
2023-05-18T07:31:54.149Z,18.70
2023-05-18T07:34:22.305Z,18.80
2023-05-18T07:36:50.385Z,18.80
2023-05-18T07:39:22.341Z,18.90
2023-05-18T07:41:50.512Z,19.10
2023-05-18T07:44:18.480Z,19.20
2023-05-18T07:46:46.792Z,19.00
2023-05-18T07:49:14.770Z,18.70
2023-05-18T07:51:42.879Z,18.80
2023-05-18T07:54:11.046Z,19.10
2023-05-18T07:56:39.826Z,19.50
2023-05-18T07:59:08.474Z,19.50
2023-05-18T08:01:38.165Z,19.60
2023-05-18T08:04:06.642Z,19.60
2023-05-18T08:06:34.665Z,19.80
2023-05-18T08:09:02.760Z,19.90
2023-05-18T08:11:30.995Z,19.90
2023-05-18T08:13:59.048Z,19.80
2023-05-18T08:16:27.405Z,19.70
2023-05-18T08:18:55.469Z,19.60
2023-05-18T08:21:23.686Z,19.60
2023-05-18T08:23:51.989Z,19.70
2023-05-18T08:26:19.997Z,19.70
2023-05-18T08:28:49.289Z,19.70
2023-05-18T08:31:17.567Z,20.00
2023-05-18T08:33:45.818Z,19.90
2023-05-18T08:36:13.872Z,20.00
2023-05-18T08:38:43.013Z,20.10
2023-05-18T08:41:23.851Z,20.10
2023-05-18T08:43:59.910Z,20.20
2023-05-18T08:46:40.782Z,20.40
2023-05-18T08:49:10.085Z,20.60
2023-05-18T08:51:38.471Z,20.80
2023-05-18T08:54:06.810Z,20.90
2023-05-18T08:56:35.366Z,20.90
2023-05-18T08:59:05.371Z,21.00
2023-05-18T09:01:34.204Z,20.90
2023-05-18T09:04:02.516Z,20.70
2023-05-18T09:06:30.699Z,20.50
2023-05-18T09:08:58.856Z,20.30
2023-05-18T09:11:27.635Z,20.30
2023-05-18T09:13:55.682Z,20.20
2023-05-18T09:16:23.849Z,20.40
2023-05-18T09:18:52.339Z,20.30
2023-05-18T09:21:20.325Z,20.00
2023-05-18T09:23:48.472Z,19.50
2023-05-18T09:26:16.627Z,19.10
2023-05-18T09:28:45.683Z,18.90
2023-05-18T09:31:18.132Z,18.80
2023-05-18T09:33:46.837Z,18.70
2023-05-18T09:36:18.575Z,18.50
2023-05-18T09:38:47.121Z,18.20
2023-05-18T09:41:18.749Z,17.90
2023-05-18T09:43:48.997Z,17.80
2023-05-18T09:46:18.508Z,17.80
2023-05-18T09:48:47.533Z,17.70
2023-05-18T09:51:22.418Z,17.60
2023-05-18T09:53:56.987Z,17.60
2023-05-18T09:56:31.341Z,17.80
2023-05-18T09:59:01.792Z,18.00
2023-05-18T10:01:30.548Z,18.40
2023-05-18T10:04:06.369Z,18.60
2023-05-18T10:06:37.071Z,18.80
2023-05-18T10:09:15.185Z,18.80
2023-05-18T10:11:44.466Z,18.80
2023-05-18T10:14:13.406Z,19.00
2023-05-18T10:16:43.312Z,18.90
2023-05-18T10:19:12.555Z,18.70
2023-05-18T10:21:42.141Z,18.80
2023-05-18T10:24:14.103Z,19.00
2023-05-18T10:26:46.490Z,19.10
2023-05-18T10:29:18.382Z,19.10
2023-05-18T10:31:50.651Z,19.20
2023-05-18T10:34:23.444Z,19.40
2023-05-18T10:36:54.387Z,19.30
2023-05-18T10:39:26.274Z,19.60
2023-05-18T10:41:58.215Z,19.80
2023-05-18T10:44:26.424Z,19.80
2023-05-18T10:46:55.345Z,19.90
2023-05-18T10:49:25.813Z,20.10
2023-05-18T10:51:59.180Z,20.30
2023-05-18T10:54:28.325Z,20.10
2023-05-18T10:57:04.279Z,20.20
2023-05-18T10:59:37.923Z,20.50
2023-05-18T11:02:11.826Z,20.70
2023-05-18T11:04:41.217Z,20.70
2023-05-18T11:07:13.132Z,20.70
2023-05-18T11:09:44.900Z,20.50
2023-05-18T11:12:14.484Z,20.30
2023-05-18T11:14:52.718Z,20.10
2023-05-18T11:17:23.832Z,20.00
2023-05-18T11:20:04.989Z,20.00
2023-05-18T11:22:46.159Z,20.00
2023-05-18T11:25:23.162Z,19.90
2023-05-18T11:27:51.576Z,19.80
2023-05-18T11:30:29.594Z,19.20
2023-05-18T11:33:19.413Z,18.90
2023-05-18T11:36:12.109Z,18.80
2023-05-18T11:39:18.945Z,18.90
2023-05-18T11:41:58.950Z,19.10
2023-05-18T11:44:28.356Z,19.00
2023-05-18T11:46:58.905Z,19.30
2023-05-18T11:49:28.169Z,19.50
2023-05-18T11:51:58.793Z,19.50
2023-05-18T11:54:27.060Z,19.60
2023-05-18T11:56:55.453Z,20.00
2023-05-18T11:59:33.380Z,20.10
2023-05-18T12:02:02.282Z,20.10
2023-05-18T12:04:30.722Z,19.90
2023-05-18T12:06:59.067Z,19.60
2023-05-18T12:09:27.662Z,19.60
2023-05-18T12:11:55.715Z,19.20
2023-05-18T12:14:23.835Z,19.00
2023-05-18T12:16:52.486Z,19.00
2023-05-18T12:19:20.520Z,19.00
2023-05-18T12:21:48.441Z,19.00
2023-05-18T12:24:17.378Z,18.70
2023-05-18T12:26:47.101Z,18.30
2023-05-18T12:29:20.389Z,18.10
2023-05-18T12:31:48.641Z,17.80
2023-05-18T12:34:16.575Z,17.70
2023-05-18T12:36:57.140Z,17.70
2023-05-18T12:39:28.440Z,17.90
2023-05-18T12:42:08.943Z,18.00
2023-05-18T12:44:37.255Z,18.20
2023-05-18T12:47:05.375Z,18.60
2023-05-18T12:49:37.057Z,18.70
2023-05-18T12:52:11.956Z,18.90
2023-05-18T12:54:50.665Z,19.20
2023-05-18T12:57:21.568Z,19.50
2023-05-18T12:59:52.837Z,19.80
2023-05-18T13:02:37.433Z,19.90
2023-05-18T13:05:06.512Z,20.20
2023-05-18T13:07:41.726Z,20.40
2023-05-18T13:10:13.408Z,20.70
2023-05-18T13:12:44.880Z,20.90
2023-05-18T13:15:13.026Z,21.40
2023-05-18T13:17:49.358Z,21.80
2023-05-18T13:20:17.588Z,22.00
2023-05-18T13:22:45.641Z,21.90
2023-05-18T13:25:13.614Z,22.20
2023-05-18T13:27:41.514Z,22.60
2023-05-18T13:30:09.949Z,22.50
2023-05-18T13:32:37.889Z,22.60
2023-05-18T13:35:06.204Z,22.60
2023-05-18T13:37:34.077Z,22.50
2023-05-18T13:40:01.951Z,22.60
2023-05-18T13:42:29.802Z,22.50
2023-05-18T13:44:57.753Z,22.30
2023-05-18T13:47:25.662Z,22.30
2023-05-18T13:49:53.683Z,22.20
2023-05-18T13:52:21.670Z,22.20
2023-05-18T13:54:49.732Z,21.90
2023-05-18T13:57:17.851Z,21.70
2023-05-18T13:59:46.422Z,21.50
2023-05-18T14:02:14.393Z,21.60
2023-05-18T14:04:42.236Z,21.40
2023-05-18T14:07:11.436Z,21.20
2023-05-18T14:09:39.403Z,21.00
2023-05-18T14:12:07.563Z,20.90
2023-05-18T14:14:35.507Z,20.80
2023-05-18T14:17:03.794Z,20.80
2023-05-18T14:19:31.913Z,20.80
2023-05-18T14:21:59.811Z,20.80
2023-05-18T14:24:27.672Z,20.80
2023-05-18T14:26:55.693Z,20.70
2023-05-18T14:29:23.530Z,20.90
2023-05-18T14:31:51.807Z,20.70
2023-05-18T14:34:19.699Z,20.50
2023-05-18T14:36:47.715Z,20.50
2023-05-18T14:39:15.597Z,20.30
2023-05-18T14:41:43.547Z,19.90
2023-05-18T14:44:11.558Z,19.80
2023-05-18T14:46:39.900Z,19.80
2023-05-18T14:49:07.966Z,19.80
2023-05-18T14:51:35.941Z,19.80
2023-05-18T14:54:03.866Z,19.50
2023-05-18T14:56:31.884Z,19.40
2023-05-18T14:58:59.801Z,19.30
2023-05-18T15:01:27.766Z,19.30
2023-05-18T15:03:55.781Z,19.20
2023-05-18T15:06:25.099Z,19.10
2023-05-18T15:08:53.078Z,19.00
2023-05-18T15:11:22.144Z,18.90
2023-05-18T15:13:50.408Z,19.00
2023-05-18T15:16:20.111Z,18.70
2023-05-18T15:18:48.090Z,18.70
2023-05-18T15:21:16.129Z,18.80
2023-05-18T15:23:44.044Z,18.80
2023-05-18T15:26:12.224Z,18.80
2023-05-18T15:28:41.465Z,18.80
2023-05-18T15:31:10.221Z,18.70
2023-05-18T15:33:42.433Z,18.70
2023-05-18T15:36:10.348Z,18.60
2023-05-18T15:38:38.191Z,18.60
2023-05-18T15:41:06.618Z,18.50
2023-05-18T15:43:36.929Z,18.30
2023-05-18T15:46:05.406Z,18.10
2023-05-18T15:48:33.458Z,18.20
2023-05-18T15:51:01.404Z,18.20
2023-05-18T15:53:29.299Z,17.90
2023-05-18T15:55:59.320Z,18.00
2023-05-18T15:58:27.715Z,17.60
2023-05-18T16:00:55.714Z,17.50
2023-05-18T16:03:23.818Z,17.50
2023-05-18T16:05:51.764Z,17.40
2023-05-18T16:08:20.885Z,17.40
2023-05-18T16:10:48.899Z,17.30
2023-05-18T16:13:16.826Z,17.30
2023-05-18T16:15:44.767Z,17.20
2023-05-18T16:18:12.935Z,17.20
2023-05-18T16:20:40.955Z,17.10
2023-05-18T16:23:08.927Z,17.10
2023-05-18T16:25:36.981Z,17.00
2023-05-18T16:28:05.012Z,17.00
2023-05-18T16:30:33.203Z,16.90
2023-05-18T16:33:01.430Z,16.90
2023-05-18T16:35:31.437Z,16.90
2023-05-18T16:37:59.496Z,16.80
2023-05-18T16:40:27.410Z,16.70
2023-05-18T16:42:55.437Z,16.60
2023-05-18T16:45:25.249Z,16.50
2023-05-18T16:47:55.214Z,16.50
2023-05-18T16:50:23.355Z,16.40
2023-05-18T16:52:51.293Z,16.40
2023-05-18T16:55:19.318Z,16.30
2023-05-18T16:57:47.353Z,16.20
2023-05-18T17:00:15.840Z,16.10
2023-05-18T17:02:44.020Z,16.10
2023-05-18T17:05:11.972Z,16.00
2023-05-18T17:07:40.088Z,16.00
2023-05-18T17:10:08.297Z,15.90
2023-05-18T17:12:37.265Z,15.90
2023-05-18T17:15:05.281Z,15.80
2023-05-18T17:17:33.233Z,15.80
2023-05-18T17:20:01.228Z,15.70
2023-05-18T17:22:29.286Z,15.70
2023-05-18T17:25:00.250Z,15.60
2023-05-18T17:27:28.280Z,15.60
2023-05-18T17:29:56.791Z,15.50
2023-05-18T17:32:25.744Z,15.60
2023-05-18T17:34:53.740Z,15.50
2023-05-18T17:37:23.965Z,15.50
2023-05-18T17:39:56.988Z,15.40
2023-05-18T17:42:25.108Z,15.40
2023-05-18T17:44:56.375Z,15.40
2023-05-18T17:47:27.030Z,15.30
2023-05-18T17:50:03.209Z,15.20
2023-05-18T17:52:31.893Z,15.30
2023-05-18T17:55:00.018Z,15.20
2023-05-18T17:57:30.280Z,15.20
2023-05-18T17:59:58.421Z,15.20
2023-05-18T18:02:26.659Z,15.10
2023-05-18T18:04:55.763Z,15.10
2023-05-18T18:07:23.908Z,15.10
2023-05-18T18:09:52.039Z,15.10
2023-05-18T18:12:20.092Z,15.00
2023-05-18T18:14:48.222Z,15.00
2023-05-18T18:17:16.400Z,15.00
2023-05-18T18:19:44.621Z,14.90
2023-05-18T18:22:12.582Z,14.90
2023-05-18T18:24:40.696Z,14.90
2023-05-18T18:27:08.777Z,14.80
2023-05-18T18:29:36.953Z,14.70
2023-05-18T18:32:05.107Z,14.70
2023-05-18T18:34:33.249Z,14.70
2023-05-18T18:37:02.287Z,14.70
2023-05-18T18:39:31.345Z,14.60
2023-05-18T18:41:59.573Z,14.60
2023-05-18T18:44:27.754Z,14.60
2023-05-18T18:46:55.921Z,14.60
2023-05-18T18:49:27.294Z,14.60
2023-05-18T18:51:59.072Z,14.60
2023-05-18T18:54:27.613Z,14.50
2023-05-18T18:56:55.983Z,14.50
2023-05-18T18:59:24.047Z,14.40
2023-05-18T19:01:52.401Z,14.40
2023-05-18T19:04:21.034Z,14.40
2023-05-18T19:06:49.375Z,14.40
2023-05-18T19:09:17.484Z,14.30
2023-05-18T19:11:45.544Z,14.30
2023-05-18T19:14:13.631Z,14.30
2023-05-18T19:16:41.783Z,14.20
2023-05-18T19:19:09.831Z,14.20
2023-05-18T19:21:38.677Z,14.10
2023-05-18T19:24:07.737Z,14.10
2023-05-18T19:26:35.826Z,14.10
2023-05-18T19:29:04.728Z,14.10
2023-05-18T19:31:34.767Z,14.10
2023-05-18T19:34:02.905Z,14.10
2023-05-18T19:36:31.695Z,14.10
2023-05-18T19:38:59.773Z,14.10
2023-05-18T19:41:27.786Z,14.10
2023-05-18T19:43:56.083Z,14.00
2023-05-18T19:46:24.214Z,14.00
2023-05-18T19:48:53.643Z,14.00
2023-05-18T19:51:24.219Z,14.00
2023-05-18T19:53:52.280Z,14.00
2023-05-18T19:56:23.084Z,14.00
2023-05-18T19:58:52.165Z,13.90
2023-05-18T20:01:20.764Z,13.90
2023-05-18T20:03:50.199Z,13.90
2023-05-18T20:06:18.475Z,13.90
2023-05-18T20:08:46.611Z,13.90
2023-05-18T20:11:15.446Z,13.90
2023-05-18T20:13:44.260Z,13.80
2023-05-18T20:16:12.741Z,13.80
2023-05-18T20:18:41.001Z,13.80
2023-05-18T20:21:10.009Z,13.80
2023-05-18T20:23:38.124Z,13.80
2023-05-18T20:26:07.102Z,13.70
2023-05-18T20:28:35.960Z,13.70
2023-05-18T20:31:04.300Z,13.70
2023-05-18T20:33:34.678Z,13.70
2023-05-18T20:36:02.935Z,13.70
2023-05-18T20:38:30.994Z,13.70
2023-05-18T20:41:00.005Z,13.60
2023-05-18T20:43:28.344Z,13.60
2023-05-18T20:45:56.600Z,13.60
2023-05-18T20:48:29.401Z,13.60
2023-05-18T20:50:57.433Z,13.60
2023-05-18T20:53:26.410Z,13.60
2023-05-18T20:56:01.669Z,13.60
2023-05-18T20:58:29.720Z,13.60
2023-05-18T21:00:57.900Z,13.60
2023-05-18T21:03:26.010Z,13.60
2023-05-18T21:05:54.242Z,13.60
2023-05-18T21:08:22.297Z,13.60
2023-05-18T21:10:50.349Z,13.50
2023-05-18T21:13:18.612Z,13.50
2023-05-18T21:15:47.008Z,13.50
2023-05-18T21:18:15.286Z,13.50
2023-05-18T21:20:43.489Z,13.50
2023-05-18T21:23:11.715Z,13.50
2023-05-18T21:25:39.740Z,13.50
2023-05-18T21:28:07.707Z,13.50
2023-05-18T21:30:35.940Z,13.50
2023-05-18T21:33:04.191Z,13.50
2023-05-18T21:35:32.243Z,13.50
2023-05-18T21:38:01.040Z,13.40
2023-05-18T21:40:29.012Z,13.40
2023-05-18T21:42:58.131Z,13.40
2023-05-18T21:45:26.794Z,13.40
2023-05-18T21:47:54.935Z,13.40
2023-05-18T21:50:22.964Z,13.40
2023-05-18T21:52:51.120Z,13.40
2023-05-18T21:55:19.142Z,13.40
2023-05-18T21:57:47.203Z,13.30
2023-05-18T22:00:17.195Z,13.30
2023-05-18T22:02:45.200Z,13.30
2023-05-18T22:05:13.296Z,13.30
2023-05-18T22:07:41.291Z,13.20
2023-05-18T22:10:09.617Z,13.20
2023-05-18T22:12:42.246Z,13.20
2023-05-18T22:15:11.166Z,13.20
2023-05-18T22:17:39.664Z,13.10
2023-05-18T22:20:09.797Z,13.10
2023-05-18T22:22:38.295Z,13.10
2023-05-18T22:25:06.864Z,13.10
2023-05-18T22:27:37.001Z,13.10
2023-05-18T22:30:06.585Z,13.00
2023-05-18T22:32:34.765Z,13.00
2023-05-18T22:35:05.293Z,13.00
2023-05-18T22:37:33.360Z,12.90
2023-05-18T22:40:01.389Z,12.90
2023-05-18T22:42:29.600Z,13.00
2023-05-18T22:44:57.641Z,12.90
2023-05-18T22:47:26.044Z,13.00
2023-05-18T22:49:54.300Z,12.90
2023-05-18T22:52:22.512Z,13.00
2023-05-18T22:54:50.812Z,13.00
2023-05-18T22:57:18.856Z,13.00
2023-05-18T22:59:47.011Z,13.00
2023-05-18T23:02:15.188Z,13.00
2023-05-18T23:04:43.346Z,13.00
2023-05-18T23:07:12.013Z,12.90
2023-05-18T23:09:40.354Z,12.90
2023-05-18T23:12:10.640Z,12.90
2023-05-18T23:14:38.839Z,12.80
2023-05-18T23:17:07.904Z,12.80
2023-05-18T23:19:36.516Z,12.80
2023-05-18T23:22:04.675Z,12.80
2023-05-18T23:24:33.979Z,12.80
2023-05-18T23:27:02.083Z,12.80
2023-05-18T23:29:30.251Z,12.70
2023-05-18T23:31:58.412Z,12.70
2023-05-18T23:34:26.798Z,12.70
2023-05-18T23:36:57.967Z,12.70
2023-05-18T23:39:27.267Z,12.70
2023-05-18T23:41:58.538Z,12.60
2023-05-18T23:44:27.230Z,12.60
2023-05-18T23:46:55.652Z,12.60
2023-05-18T23:49:23.869Z,12.60
2023-05-18T23:51:52.633Z,12.50
2023-05-18T23:54:21.322Z,12.60
2023-05-18T23:56:50.134Z,12.50
2023-05-18T23:59:18.306Z,12.50
